sensor_id;sensor_type;location;lat;lon;timestamp;pressure;altitude;pressure_sealevel;temperature;humidity
41202;BME280;26936;50.524;8.684;2023-03-21T00:01:28;99581.19;;;8.83;90.67
41202;BME280;26936;50.524;8.684;2023-03-21T00:03:54;99577.19;;;8.84;90.26
41202;BME280;26936;50.524;8.684;2023-03-21T00:06:19;99569.28;;;8.79;90.66
41202;BME280;26936;50.524;8.684;2023-03-21T00:08:45;99566.47;;;8.79;90.73
41202;BME280;26936;50.524;8.684;2023-03-21T00:11:11;99565.34;;;8.92;90.09
41202;BME280;26936;50.524;8.684;2023-03-21T00:13:37;99567.88;;;8.87;89.51
41202;BME280;26936;50.524;8.684;2023-03-21T00:16:11;99561.91;;;8.85;89.89
41202;BME280;26936;50.524;8.684;2023-03-21T00:18:46;99559.53;;;8.83;89.64
41202;BME280;26936;50.524;8.684;2023-03-21T00:21:15;99555.91;;;8.83;89.97
41202;BME280;26936;50.524;8.684;2023-03-21T00:23:41;99556.34;;;8.81;90.40
41202;BME280;26936;50.524;8.684;2023-03-21T00:26:07;99554.00;;;8.80;90.24
41202;BME280;26936;50.524;8.684;2023-03-21T00:28:37;99553.84;;;8.87;89.45
41202;BME280;26936;50.524;8.684;2023-03-21T00:31:03;99554.28;;;8.85;89.47
41202;BME280;26936;50.524;8.684;2023-03-21T00:33:28;99552.59;;;8.88;90.03
41202;BME280;26936;50.524;8.684;2023-03-21T00:35:54;99548.31;;;9.15;88.01
41202;BME280;26936;50.524;8.684;2023-03-21T00:38:21;99540.41;;;8.94;89.05
41202;BME280;26936;50.524;8.684;2023-03-21T00:40:46;99545.75;;;8.89;89.44
41202;BME280;26936;50.524;8.684;2023-03-21T00:43:11;99547.78;;;8.88;89.51
41202;BME280;26936;50.524;8.684;2023-03-21T00:45:38;99542.53;;;8.90;89.07
41202;BME280;26936;50.524;8.684;2023-03-21T00:48:04;99535.31;;;8.89;89.43
41202;BME280;26936;50.524;8.684;2023-03-21T00:50:30;99534.84;;;8.91;88.90
41202;BME280;26936;50.524;8.684;2023-03-21T00:52:58;99537.59;;;8.78;90.20
41202;BME280;26936;50.524;8.684;2023-03-21T00:55:24;99532.06;;;8.91;89.36
41202;BME280;26936;50.524;8.684;2023-03-21T00:57:49;99531.81;;;8.85;89.59
41202;BME280;26936;50.524;8.684;2023-03-21T01:00:17;99528.03;;;8.92;89.64
41202;BME280;26936;50.524;8.684;2023-03-21T01:02:43;99527.50;;;8.97;89.08
41202;BME280;26936;50.524;8.684;2023-03-21T01:05:28;99518.38;;;8.93;88.70
41202;BME280;26936;50.524;8.684;2023-03-21T01:08:14;99526.44;;;8.91;89.01
41202;BME280;26936;50.524;8.684;2023-03-21T01:10:42;99521.97;;;8.93;89.54
41202;BME280;26936;50.524;8.684;2023-03-21T01:13:09;99523.03;;;8.99;89.17
41202;BME280;26936;50.524;8.684;2023-03-21T01:15:35;99513.72;;;8.86;89.83
41202;BME280;26936;50.524;8.684;2023-03-21T01:18:01;99517.25;;;8.90;89.85
41202;BME280;26936;50.524;8.684;2023-03-21T01:20:26;99512.06;;;8.89;90.34
41202;BME280;26936;50.524;8.684;2023-03-21T01:22:52;99519.59;;;8.92;90.81
41202;BME280;26936;50.524;8.684;2023-03-21T01:25:18;99527.22;;;8.91;90.57
41202;BME280;26936;50.524;8.684;2023-03-21T01:27:43;99515.84;;;8.82;91.67
41202;BME280;26936;50.524;8.684;2023-03-21T01:30:09;99522.22;;;8.83;91.41
41202;BME280;26936;50.524;8.684;2023-03-21T01:32:34;99522.94;;;8.87;91.00
41202;BME280;26936;50.524;8.684;2023-03-21T01:35:00;99515.75;;;8.86;90.95
41202;BME280;26936;50.524;8.684;2023-03-21T01:37:25;99516.59;;;8.83;91.34
41202;BME280;26936;50.524;8.684;2023-03-21T01:39:51;99512.66;;;8.80;91.51
41202;BME280;26936;50.524;8.684;2023-03-21T01:42:16;99512.94;;;8.86;91.20
41202;BME280;26936;50.524;8.684;2023-03-21T01:45:00;99505.28;;;8.86;92.19
41202;BME280;26936;50.524;8.684;2023-03-21T01:47:27;99507.41;;;8.82;92.98
41202;BME280;26936;50.524;8.684;2023-03-21T01:49:55;99500.38;;;8.90;92.52
41202;BME280;26936;50.524;8.684;2023-03-21T01:52:28;99502.31;;;8.77;92.90
41202;BME280;26936;50.524;8.684;2023-03-21T01:54:56;99496.34;;;8.75;93.43
41202;BME280;26936;50.524;8.684;2023-03-21T01:57:31;99496.41;;;8.88;92.34
41202;BME280;26936;50.524;8.684;2023-03-21T02:00:03;99492.47;;;8.85;91.97
41202;BME280;26936;50.524;8.684;2023-03-21T02:02:39;99501.00;;;8.82;92.06
41202;BME280;26936;50.524;8.684;2023-03-21T02:05:20;99487.22;;;8.87;91.30
41202;BME280;26936;50.524;8.684;2023-03-21T02:07:47;99483.88;;;8.76;91.78
41202;BME280;26936;50.524;8.684;2023-03-21T02:10:15;99492.22;;;8.80;90.97
41202;BME280;26936;50.524;8.684;2023-03-21T02:12:40;99483.78;;;8.80;90.71
41202;BME280;26936;50.524;8.684;2023-03-21T02:15:07;99483.44;;;8.78;91.12
41202;BME280;26936;50.524;8.684;2023-03-21T02:17:44;99466.41;;;8.85;91.33
41202;BME280;26936;50.524;8.684;2023-03-21T02:20:26;99475.34;;;8.80;91.40
41202;BME280;26936;50.524;8.684;2023-03-21T02:26:19;99465.38;;;8.79;92.75
41202;BME280;26936;50.524;8.684;2023-03-21T02:28:59;99468.78;;;8.70;95.62
41202;BME280;26936;50.524;8.684;2023-03-21T02:31:46;99464.22;;;8.76;94.40
41202;BME280;26936;50.524;8.684;2023-03-21T02:38:01;99466.78;;;8.71;96.78
41202;BME280;26936;50.524;8.684;2023-03-21T02:39:59;99458.72;;;8.73;96.29
41202;BME280;26936;50.524;8.684;2023-03-21T02:45:42;99465.81;;;8.77;94.58
41202;BME280;26936;50.524;8.684;2023-03-21T02:48:15;99465.59;;;8.84;93.74
41202;BME280;26936;50.524;8.684;2023-03-21T02:50:49;99465.63;;;8.68;94.69
41202;BME280;26936;50.524;8.684;2023-03-21T02:53:19;99462.88;;;8.65;96.40
41202;BME280;26936;50.524;8.684;2023-03-21T02:55:46;99462.38;;;8.70;96.07
41202;BME280;26936;50.524;8.684;2023-03-21T02:58:14;99461.03;;;8.58;97.64
41202;BME280;26936;50.524;8.684;2023-03-21T03:00:41;99456.75;;;8.54;98.62
41202;BME280;26936;50.524;8.684;2023-03-21T03:03:09;99457.63;;;8.51;99.28
41202;BME280;26936;50.524;8.684;2023-03-21T03:05:43;99453.69;;;8.48;99.51
41202;BME280;26936;50.524;8.684;2023-03-21T03:13:53;99449.22;;;8.67;97.87
41202;BME280;26936;50.524;8.684;2023-03-21T03:16:47;99449.47;;;8.56;98.90
41202;BME280;26936;50.524;8.684;2023-03-21T03:19:24;99439.91;;;8.70;97.92
41202;BME280;26936;50.524;8.684;2023-03-21T03:21:59;99448.16;;;8.61;98.44
41202;BME280;26936;50.524;8.684;2023-03-21T03:24:30;99445.16;;;8.52;99.03
41202;BME280;26936;50.524;8.684;2023-03-21T03:26:58;99450.44;;;8.50;98.99
41202;BME280;26936;50.524;8.684;2023-03-21T03:29:27;99451.47;;;8.40;99.07
41202;BME280;26936;50.524;8.684;2023-03-21T03:31:58;99448.03;;;8.32;99.68
41202;BME280;26936;50.524;8.684;2023-03-21T03:34:29;99441.50;;;8.19;100.00
41202;BME280;26936;50.524;8.684;2023-03-21T03:37:00;99450.78;;;8.16;100.00
41202;BME280;26936;50.524;8.684;2023-03-21T03:39:34;99443.59;;;8.15;100.00
41202;BME280;26936;50.524;8.684;2023-03-21T03:42:04;99444.56;;;8.08;100.00
41202;BME280;26936;50.524;8.684;2023-03-21T03:44:31;99437.44;;;8.04;100.00
41202;BME280;26936;50.524;8.684;2023-03-21T03:47:02;99435.91;;;7.99;100.00
41202;BME280;26936;50.524;8.684;2023-03-21T03:49:33;99436.09;;;7.92;100.00
41202;BME280;26936;50.524;8.684;2023-03-21T03:52:07;99429.31;;;7.90;100.00
41202;BME280;26936;50.524;8.684;2023-03-21T03:54:40;99434.31;;;7.82;100.00
41202;BME280;26936;50.524;8.684;2023-03-21T03:57:07;99435.19;;;7.79;100.00
41202;BME280;26936;50.524;8.684;2023-03-21T03:59:35;99436.19;;;7.69;100.00
41202;BME280;26936;50.524;8.684;2023-03-21T04:02:01;99435.63;;;7.58;100.00
41202;BME280;26936;50.524;8.684;2023-03-21T04:04:27;99430.16;;;7.51;100.00
41202;BME280;26936;50.524;8.684;2023-03-21T04:06:54;99434.47;;;7.56;100.00
41202;BME280;26936;50.524;8.684;2023-03-21T04:09:20;99431.38;;;7.50;100.00
41202;BME280;26936;50.524;8.684;2023-03-21T04:11:46;99434.69;;;7.45;100.00
41202;BME280;26936;50.524;8.684;2023-03-21T04:14:11;99434.03;;;7.57;100.00
41202;BME280;26936;50.524;8.684;2023-03-21T04:16:37;99421.53;;;7.62;100.00
41202;BME280;26936;50.524;8.684;2023-03-21T04:19:03;99421.94;;;7.80;100.00
41202;BME280;26936;50.524;8.684;2023-03-21T04:21:28;99412.03;;;7.75;100.00
41202;BME280;26936;50.524;8.684;2023-03-21T04:23:54;99413.63;;;7.76;100.00
41202;BME280;26936;50.524;8.684;2023-03-21T04:26:22;99414.91;;;7.72;100.00
41202;BME280;26936;50.524;8.684;2023-03-21T04:28:49;99415.38;;;7.86;100.00
41202;BME280;26936;50.524;8.684;2023-03-21T04:31:15;99413.19;;;7.78;100.00
41202;BME280;26936;50.524;8.684;2023-03-21T04:33:42;99413.69;;;7.73;100.00
41202;BME280;26936;50.524;8.684;2023-03-21T04:36:08;99411.72;;;7.89;100.00
41202;BME280;26936;50.524;8.684;2023-03-21T04:38:35;99411.72;;;7.89;100.00
41202;BME280;26936;50.524;8.684;2023-03-21T04:41:01;99406.81;;;7.93;100.00
41202;BME280;26936;50.524;8.684;2023-03-21T04:43:27;99402.75;;;7.78;100.00
41202;BME280;26936;50.524;8.684;2023-03-21T04:45:53;99413.50;;;7.80;100.00
41202;BME280;26936;50.524;8.684;2023-03-21T04:48:19;99403.84;;;7.65;100.00
41202;BME280;26936;50.524;8.684;2023-03-21T04:50:45;99391.91;;;7.61;100.00
41202;BME280;26936;50.524;8.684;2023-03-21T04:53:10;99384.06;;;7.72;100.00
41202;BME280;26936;50.524;8.684;2023-03-21T04:55:35;99387.00;;;7.84;100.00
41202;BME280;26936;50.524;8.684;2023-03-21T04:58:02;99391.09;;;7.80;100.00
41202;BME280;26936;50.524;8.684;2023-03-21T05:00:28;99390.97;;;7.67;100.00
41202;BME280;26936;50.524;8.684;2023-03-21T05:02:53;99398.50;;;7.70;100.00
41202;BME280;26936;50.524;8.684;2023-03-21T05:05:20;99401.47;;;7.83;100.00
41202;BME280;26936;50.524;8.684;2023-03-21T05:07:45;99389.59;;;7.75;100.00
41202;BME280;26936;50.524;8.684;2023-03-21T05:10:11;99396.00;;;7.76;100.00
41202;BME280;26936;50.524;8.684;2023-03-21T05:12:36;99407.00;;;7.67;100.00
41202;BME280;26936;50.524;8.684;2023-03-21T05:15:02;99403.13;;;7.61;100.00
41202;BME280;26936;50.524;8.684;2023-03-21T05:17:27;99407.78;;;7.67;100.00
41202;BME280;26936;50.524;8.684;2023-03-21T05:19:54;99411.03;;;7.66;100.00
41202;BME280;26936;50.524;8.684;2023-03-21T05:22:21;99408.88;;;7.54;100.00
41202;BME280;26936;50.524;8.684;2023-03-21T05:24:49;99404.13;;;7.51;100.00
41202;BME280;26936;50.524;8.684;2023-03-21T05:27:18;99404.44;;;7.37;100.00
41202;BME280;26936;50.524;8.684;2023-03-21T05:30:08;99410.03;;;7.37;100.00
41202;BME280;26936;50.524;8.684;2023-03-21T05:32:34;99408.53;;;7.32;100.00
41202;BME280;26936;50.524;8.684;2023-03-21T05:35:00;99402.00;;;7.39;100.00
41202;BME280;26936;50.524;8.684;2023-03-21T05:37:25;99401.56;;;7.40;100.00
41202;BME280;26936;50.524;8.684;2023-03-21T05:39:51;99407.31;;;7.33;100.00
41202;BME280;26936;50.524;8.684;2023-03-21T05:42:16;99406.88;;;7.35;100.00
41202;BME280;26936;50.524;8.684;2023-03-21T05:44:43;99403.84;;;7.26;100.00
41202;BME280;26936;50.524;8.684;2023-03-21T05:47:11;99406.22;;;7.27;100.00
41202;BME280;26936;50.524;8.684;2023-03-21T05:49:37;99407.44;;;7.26;100.00
41202;BME280;26936;50.524;8.684;2023-03-21T05:52:02;99406.16;;;7.31;100.00
41202;BME280;26936;50.524;8.684;2023-03-21T05:54:27;99405.13;;;7.41;100.00
41202;BME280;26936;50.524;8.684;2023-03-21T05:56:52;99393.16;;;7.40;100.00
41202;BME280;26936;50.524;8.684;2023-03-21T05:59:18;99397.16;;;7.39;100.00
41202;BME280;26936;50.524;8.684;2023-03-21T06:01:43;99391.34;;;7.50;100.00
41202;BME280;26936;50.524;8.684;2023-03-21T06:04:08;99396.81;;;7.57;100.00
41202;BME280;26936;50.524;8.684;2023-03-21T06:06:34;99401.81;;;7.65;100.00
41202;BME280;26936;50.524;8.684;2023-03-21T06:08:59;99405.91;;;7.80;100.00
41202;BME280;26936;50.524;8.684;2023-03-21T06:11:27;99416.13;;;8.06;100.00
41202;BME280;26936;50.524;8.684;2023-03-21T06:13:53;99420.28;;;8.18;100.00
41202;BME280;26936;50.524;8.684;2023-03-21T06:16:18;99414.47;;;8.45;100.00
41202;BME280;26936;50.524;8.684;2023-03-21T06:18:44;99416.84;;;8.62;100.00
41202;BME280;26936;50.524;8.684;2023-03-21T06:21:09;99413.44;;;8.71;100.00
41202;BME280;26936;50.524;8.684;2023-03-21T06:23:35;99409.78;;;9.02;100.00
41202;BME280;26936;50.524;8.684;2023-03-21T06:26:01;99412.25;;;9.00;100.00
41202;BME280;26936;50.524;8.684;2023-03-21T06:28:27;99419.09;;;8.99;100.00
41202;BME280;26936;50.524;8.684;2023-03-21T06:30:52;99416.94;;;9.19;100.00
41202;BME280;26936;50.524;8.684;2023-03-21T06:33:17;99414.22;;;9.16;100.00
41202;BME280;26936;50.524;8.684;2023-03-21T06:35:43;99413.28;;;9.35;99.32
41202;BME280;26936;50.524;8.684;2023-03-21T06:38:09;99419.31;;;9.21;99.26
41202;BME280;26936;50.524;8.684;2023-03-21T06:40:37;99418.47;;;9.36;97.21
41202;BME280;26936;50.524;8.684;2023-03-21T06:43:02;99411.63;;;9.37;99.53
41202;BME280;26936;50.524;8.684;2023-03-21T06:45:27;99418.75;;;9.54;97.64
41202;BME280;26936;50.524;8.684;2023-03-21T06:47:53;99422.53;;;9.35;97.55
41202;BME280;26936;50.524;8.684;2023-03-21T06:50:18;99422.69;;;9.28;98.38
41202;BME280;26936;50.524;8.684;2023-03-21T06:52:43;99427.66;;;9.24;99.33
41202;BME280;26936;50.524;8.684;2023-03-21T06:55:09;99428.31;;;9.28;99.67
41202;BME280;26936;50.524;8.684;2023-03-21T06:57:35;99422.75;;;9.12;100.00
41202;BME280;26936;50.524;8.684;2023-03-21T07:00:00;99421.53;;;8.97;100.00
41202;BME280;26936;50.524;8.684;2023-03-21T07:02:25;99419.94;;;9.12;100.00
41202;BME280;26936;50.524;8.684;2023-03-21T07:04:51;99415.66;;;9.08;100.00
41202;BME280;26936;50.524;8.684;2023-03-21T07:07:16;99413.22;;;8.94;100.00
41202;BME280;26936;50.524;8.684;2023-03-21T07:09:42;99412.84;;;9.08;100.00
41202;BME280;26936;50.524;8.684;2023-03-21T07:12:07;99415.91;;;9.42;100.00
41202;BME280;26936;50.524;8.684;2023-03-21T07:14:32;99416.09;;;9.35;100.00
41202;BME280;26936;50.524;8.684;2023-03-21T07:16:58;99419.88;;;9.44;100.00
41202;BME280;26936;50.524;8.684;2023-03-21T07:19:24;99423.47;;;9.16;100.00
41202;BME280;26936;50.524;8.684;2023-03-21T07:21:50;99431.22;;;9.41;100.00
41202;BME280;26936;50.524;8.684;2023-03-21T07:24:15;99421.28;;;9.36;100.00
41202;BME280;26936;50.524;8.684;2023-03-21T07:26:40;99427.63;;;9.53;99.39
41202;BME280;26936;50.524;8.684;2023-03-21T07:29:06;99424.31;;;9.29;100.00
41202;BME280;26936;50.524;8.684;2023-03-21T07:31:31;99417.09;;;9.28;100.00
41202;BME280;26936;50.524;8.684;2023-03-21T07:33:56;99414.63;;;9.30;100.00
41202;BME280;26936;50.524;8.684;2023-03-21T07:36:22;99415.50;;;9.56;100.00
41202;BME280;26936;50.524;8.684;2023-03-21T07:38:47;99417.91;;;9.70;100.00
41202;BME280;26936;50.524;8.684;2023-03-21T07:41:13;99424.44;;;9.67;100.00
41202;BME280;26936;50.524;8.684;2023-03-21T07:43:38;99418.84;;;9.80;100.00
41202;BME280;26936;50.524;8.684;2023-03-21T07:46:04;99415.47;;;9.72;100.00
41202;BME280;26936;50.524;8.684;2023-03-21T07:48:29;99412.22;;;9.86;99.91
41202;BME280;26936;50.524;8.684;2023-03-21T07:50:55;99415.47;;;9.97;99.17
41202;BME280;26936;50.524;8.684;2023-03-21T07:53:20;99415.38;;;9.88;99.45
41202;BME280;26936;50.524;8.684;2023-03-21T07:55:50;99416.38;;;9.94;98.76
41202;BME280;26936;50.524;8.684;2023-03-21T07:58:16;99418.44;;;10.06;98.56
41202;BME280;26936;50.524;8.684;2023-03-21T08:00:41;99418.38;;;10.22;96.80
41202;BME280;26936;50.524;8.684;2023-03-21T08:03:06;99417.66;;;10.18;98.51
41202;BME280;26936;50.524;8.684;2023-03-21T08:05:33;99417.13;;;10.23;97.95
41202;BME280;26936;50.524;8.684;2023-03-21T08:08:00;99416.66;;;10.25;98.50
41202;BME280;26936;50.524;8.684;2023-03-21T08:10:26;99414.63;;;10.38;96.35
41202;BME280;26936;50.524;8.684;2023-03-21T08:12:51;99421.97;;;10.35;97.63
41202;BME280;26936;50.524;8.684;2023-03-21T08:15:16;99425.69;;;10.45;94.36
41202;BME280;26936;50.524;8.684;2023-03-21T08:17:42;99420.97;;;10.42;94.93
41202;BME280;26936;50.524;8.684;2023-03-21T08:20:12;99420.06;;;10.45;95.03
41202;BME280;26936;50.524;8.684;2023-03-21T08:22:38;99416.69;;;10.37;93.93
41202;BME280;26936;50.524;8.684;2023-03-21T08:25:05;99421.41;;;10.40;93.51
41202;BME280;26936;50.524;8.684;2023-03-21T08:27:33;99416.66;;;10.25;96.58
41202;BME280;26936;50.524;8.684;2023-03-21T08:29:59;99416.00;;;10.33;95.83
41202;BME280;26936;50.524;8.684;2023-03-21T08:32:24;99415.44;;;10.38;95.00
41202;BME280;26936;50.524;8.684;2023-03-21T08:35:00;99424.56;;;10.55;93.27
41202;BME280;26936;50.524;8.684;2023-03-21T08:37:26;99424.44;;;10.58;93.90
41202;BME280;26936;50.524;8.684;2023-03-21T08:39:52;99429.72;;;10.69;92.72
41202;BME280;26936;50.524;8.684;2023-03-21T08:42:19;99423.09;;;10.63;94.66
41202;BME280;26936;50.524;8.684;2023-03-21T08:44:44;99429.06;;;10.65;94.90
41202;BME280;26936;50.524;8.684;2023-03-21T08:47:11;99422.28;;;10.75;93.59
41202;BME280;26936;50.524;8.684;2023-03-21T08:49:37;99421.25;;;10.81;93.66
41202;BME280;26936;50.524;8.684;2023-03-21T08:52:02;99428.44;;;10.95;92.13
41202;BME280;26936;50.524;8.684;2023-03-21T08:54:28;99420.00;;;10.82;93.88
41202;BME280;26936;50.524;8.684;2023-03-21T08:56:53;99429.03;;;10.77;93.46
41202;BME280;26936;50.524;8.684;2023-03-21T08:59:19;99429.94;;;10.74;92.78
41202;BME280;26936;50.524;8.684;2023-03-21T09:01:44;99429.00;;;10.90;92.92
41202;BME280;26936;50.524;8.684;2023-03-21T09:04:09;99427.22;;;10.96;93.47
41202;BME280;26936;50.524;8.684;2023-03-21T09:06:36;99431.00;;;11.02;92.28
41202;BME280;26936;50.524;8.684;2023-03-21T09:09:03;99422.69;;;10.98;93.83
41202;BME280;26936;50.524;8.684;2023-03-21T09:11:31;99419.16;;;11.07;94.09
41202;BME280;26936;50.524;8.684;2023-03-21T09:13:56;99419.16;;;11.07;94.50
41202;BME280;26936;50.524;8.684;2023-03-21T09:16:22;99421.03;;;11.23;93.53
41202;BME280;26936;50.524;8.684;2023-03-21T09:18:49;99417.34;;;11.13;93.60
41202;BME280;26936;50.524;8.684;2023-03-21T09:21:20;99418.00;;;11.17;92.88
41202;BME280;26936;50.524;8.684;2023-03-21T09:23:47;99424.28;;;11.21;93.18
41202;BME280;26936;50.524;8.684;2023-03-21T09:26:14;99429.03;;;11.24;92.75
41202;BME280;26936;50.524;8.684;2023-03-21T09:28:40;99424.19;;;11.25;92.33
41202;BME280;26936;50.524;8.684;2023-03-21T09:31:07;99428.94;;;11.15;94.04
41202;BME280;26936;50.524;8.684;2023-03-21T09:33:35;99428.41;;;11.08;94.04
41202;BME280;26936;50.524;8.684;2023-03-21T09:36:00;99432.56;;;11.16;93.53
41202;BME280;26936;50.524;8.684;2023-03-21T09:38:27;99420.94;;;11.14;93.31
41202;BME280;26936;50.524;8.684;2023-03-21T09:41:03;99423.25;;;11.28;93.09
41202;BME280;26936;50.524;8.684;2023-03-21T09:43:40;99424.56;;;11.36;92.85
41202;BME280;26936;50.524;8.684;2023-03-21T09:46:41;99426.63;;;11.35;92.47
41202;BME280;26936;50.524;8.684;2023-03-21T09:49:19;99420.47;;;11.49;91.50
41202;BME280;26936;50.524;8.684;2023-03-21T09:51:48;99424.84;;;11.50;91.58
41202;BME280;26936;50.524;8.684;2023-03-21T09:54:24;99429.72;;;11.50;92.45
41202;BME280;26936;50.524;8.684;2023-03-21T09:56:53;99424.59;;;11.57;91.25
41202;BME280;26936;50.524;8.684;2023-03-21T09:59:26;99426.19;;;11.58;92.11
41202;BME280;26936;50.524;8.684;2023-03-21T10:01:52;99426.78;;;11.53;92.64
41202;BME280;26936;50.524;8.684;2023-03-21T10:04:19;99426.31;;;11.55;93.67
41202;BME280;26936;50.524;8.684;2023-03-21T10:06:54;99420.69;;;11.55;93.14
41202;BME280;26936;50.524;8.684;2023-03-21T10:09:21;99420.63;;;11.67;92.30
41202;BME280;26936;50.524;8.684;2023-03-21T10:11:56;99427.84;;;11.68;92.16
41202;BME280;26936;50.524;8.684;2023-03-21T10:14:38;99423.00;;;11.69;91.79
41202;BME280;26936;50.524;8.684;2023-03-21T10:17:30;99430.03;;;11.64;92.25
41202;BME280;26936;50.524;8.684;2023-03-21T10:22:36;99430.38;;;11.66;94.71
41202;BME280;26936;50.524;8.684;2023-03-21T10:25:02;99417.47;;;11.65;95.24
41202;BME280;26936;50.524;8.684;2023-03-21T10:27:29;99422.19;;;11.68;96.27
41202;BME280;26936;50.524;8.684;2023-03-21T10:29:54;99418.22;;;11.78;95.80
41202;BME280;26936;50.524;8.684;2023-03-21T10:32:21;99416.91;;;11.70;99.63
41202;BME280;26936;50.524;8.684;2023-03-21T10:34:50;99423.13;;;11.65;99.75
41202;BME280;26936;50.524;8.684;2023-03-21T10:37:17;99415.47;;;11.66;100.00
41202;BME280;26936;50.524;8.684;2023-03-21T10:39:44;99413.94;;;11.74;100.00
41202;BME280;26936;50.524;8.684;2023-03-21T10:42:23;99415.69;;;11.59;100.00
41202;BME280;26936;50.524;8.684;2023-03-21T10:44:50;99417.94;;;11.64;100.00
41202;BME280;26936;50.524;8.684;2023-03-21T10:47:30;99410.63;;;11.66;100.00
41202;BME280;26936;50.524;8.684;2023-03-21T10:50:01;99414.13;;;11.58;100.00
41202;BME280;26936;50.524;8.684;2023-03-21T10:52:29;99409.59;;;11.60;100.00
41202;BME280;26936;50.524;8.684;2023-03-21T10:57:46;99407.56;;;11.61;100.00
41202;BME280;26936;50.524;8.684;2023-03-21T11:00:24;99417.66;;;11.49;100.00
41202;BME280;26936;50.524;8.684;2023-03-21T11:02:52;99415.34;;;11.57;100.00
41202;BME280;26936;50.524;8.684;2023-03-21T11:05:32;99417.81;;;11.67;100.00
41202;BME280;26936;50.524;8.684;2023-03-21T11:08:18;99412.50;;;11.69;100.00
41202;BME280;26936;50.524;8.684;2023-03-21T11:10:54;99417.22;;;11.72;100.00
41202;BME280;26936;50.524;8.684;2023-03-21T11:13:37;99416.63;;;11.77;100.00
41202;BME280;26936;50.524;8.684;2023-03-21T11:16:09;99417.22;;;11.72;100.00
41202;BME280;26936;50.524;8.684;2023-03-21T11:18:41;99423.25;;;11.83;100.00
41202;BME280;26936;50.524;8.684;2023-03-21T11:21:11;99416.03;;;11.82;100.00
41202;BME280;26936;50.524;8.684;2023-03-21T11:23:41;99415.38;;;11.78;100.00
41202;BME280;26936;50.524;8.684;2023-03-21T11:26:10;99405.22;;;11.81;100.00
41202;BME280;26936;50.524;8.684;2023-03-21T11:28:38;99414.00;;;11.83;100.00
41202;BME280;26936;50.524;8.684;2023-03-21T11:31:05;99411.63;;;11.81;100.00
41202;BME280;26936;50.524;8.684;2023-03-21T11:33:38;99406.22;;;11.96;100.00
41202;BME280;26936;50.524;8.684;2023-03-21T11:38:56;99392.22;;;11.83;100.00
41202;BME280;26936;50.524;8.684;2023-03-21T11:41:29;99395.25;;;11.89;100.00
41202;BME280;26936;50.524;8.684;2023-03-21T11:43:55;99390.19;;;11.84;100.00
41202;BME280;26936;50.524;8.684;2023-03-21T11:46:26;99382.81;;;11.86;100.00
41202;BME280;26936;50.524;8.684;2023-03-21T11:48:51;99389.59;;;11.89;100.00
41202;BME280;26936;50.524;8.684;2023-03-21T11:56:52;99371.06;;;11.88;100.00
41202;BME280;26936;50.524;8.684;2023-03-21T11:59:47;99363.59;;;11.94;100.00
41202;BME280;26936;50.524;8.684;2023-03-21T12:02:30;99364.00;;;11.83;100.00
41202;BME280;26936;50.524;8.684;2023-03-21T12:05:02;99369.31;;;11.81;100.00
41202;BME280;26936;50.524;8.684;2023-03-21T12:07:41;99359.00;;;11.87;100.00
41202;BME280;26936;50.524;8.684;2023-03-21T12:32:09;99333.25;;;12.16;100.00
41202;BME280;26936;50.524;8.684;2023-03-21T12:35:00;99334.97;;;11.83;100.00
41202;BME280;26936;50.524;8.684;2023-03-21T12:37:39;99340.19;;;11.63;100.00
41202;BME280;26936;50.524;8.684;2023-03-21T12:40:26;99331.16;;;11.46;100.00
41202;BME280;26936;50.524;8.684;2023-03-21T12:43:11;99335.41;;;11.29;100.00
41202;BME280;26936;50.524;8.684;2023-03-21T12:45:43;99339.13;;;11.26;100.00
41202;BME280;26936;50.524;8.684;2023-03-21T12:48:18;99327.94;;;11.14;100.00
41202;BME280;26936;50.524;8.684;2023-03-21T12:50:47;99332.03;;;11.00;100.00
41202;BME280;26936;50.524;8.684;2023-03-21T12:55:57;99331.81;;;10.73;100.00
41202;BME280;26936;50.524;8.684;2023-03-21T12:58:27;99333.50;;;10.70;100.00
41202;BME280;26936;50.524;8.684;2023-03-21T13:00:58;99337.00;;;10.74;100.00
41202;BME280;26936;50.524;8.684;2023-03-21T13:03:35;99332.34;;;10.80;100.00
41202;BME280;26936;50.524;8.684;2023-03-21T13:06:04;99333.09;;;10.93;100.00
41202;BME280;26936;50.524;8.684;2023-03-21T13:08:48;99326.97;;;11.08;100.00
41202;BME280;26936;50.524;8.684;2023-03-21T13:11:20;99322.03;;;10.99;100.00
41202;BME280;26936;50.524;8.684;2023-03-21T13:13:58;99323.59;;;11.00;100.00
41202;BME280;26936;50.524;8.684;2023-03-21T13:16:47;99323.06;;;10.92;100.00
41202;BME280;26936;50.524;8.684;2023-03-21T13:19:29;99328.88;;;10.98;100.00
41202;BME280;26936;50.524;8.684;2023-03-21T13:22:25;99319.13;;;10.90;100.00
41202;BME280;26936;50.524;8.684;2023-03-21T13:25:05;99319.06;;;10.81;100.00
41202;BME280;26936;50.524;8.684;2023-03-21T13:27:31;99309.47;;;10.78;100.00
41202;BME280;26936;50.524;8.684;2023-03-21T13:32:40;99303.72;;;10.82;100.00
41202;BME280;26936;50.524;8.684;2023-03-21T13:38:14;99285.69;;;10.79;100.00
41202;BME280;26936;50.524;8.684;2023-03-21T13:40:46;99297.09;;;10.76;100.00
41202;BME280;26936;50.524;8.684;2023-03-21T13:51:44;99286.34;;;10.62;100.00
41202;BME280;26936;50.524;8.684;2023-03-21T13:59:42;99279.91;;;10.61;100.00
41202;BME280;26936;50.524;8.684;2023-03-21T14:04:37;99268.63;;;10.61;100.00
41202;BME280;26936;50.524;8.684;2023-03-21T14:07:13;99265.03;;;10.61;100.00
41202;BME280;26936;50.524;8.684;2023-03-21T14:09:46;99257.03;;;10.59;100.00
41202;BME280;26936;50.524;8.684;2023-03-21T14:12:22;99257.88;;;10.47;100.00
41202;BME280;26936;50.524;8.684;2023-03-21T14:14:51;99262.50;;;10.41;100.00
41202;BME280;26936;50.524;8.684;2023-03-21T14:17:24;99256.88;;;10.41;100.00
41202;BME280;26936;50.524;8.684;2023-03-21T14:19:55;99256.78;;;10.32;100.00
41202;BME280;26936;50.524;8.684;2023-03-21T14:22:21;99252.09;;;10.04;100.00
41202;BME280;26936;50.524;8.684;2023-03-21T14:24:58;99256.00;;;10.07;100.00
41202;BME280;26936;50.524;8.684;2023-03-21T14:27:35;99253.00;;;10.14;100.00